createdAt,value
2018-05-18T00:00:05.686Z,89.50
2018-05-18T00:02:37.148Z,92.00
2018-05-18T00:05:08.357Z,95.50
2018-05-18T00:07:39.854Z,97.20
2018-05-18T00:10:11.094Z,81.60
2018-05-18T00:12:42.263Z,81.60
2018-05-18T00:15:13.490Z,81.80
2018-05-18T00:17:44.687Z,81.80
2018-05-18T00:20:22.525Z,81.80
2018-05-18T00:22:54.060Z,81.90
2018-05-18T00:25:25.495Z,82.00
2018-05-18T00:27:58.106Z,82.00
2018-05-18T00:30:29.328Z,82.10
2018-05-18T00:33:00.519Z,82.00
2018-05-18T00:35:31.744Z,82.30
2018-05-18T00:38:02.928Z,82.50
2018-05-18T00:40:35.234Z,83.50
2018-05-18T00:43:06.430Z,82.70
2018-05-18T00:45:37.931Z,82.70
2018-05-18T00:48:09.165Z,83.00
2018-05-18T00:50:40.439Z,83.00
2018-05-18T00:53:11.967Z,83.10
2018-05-18T00:55:43.410Z,83.20
2018-05-18T00:58:14.881Z,82.70
2018-05-18T01:00:46.120Z,83.40
2018-05-18T01:03:17.312Z,83.80
2018-05-18T01:05:49.264Z,84.00
2018-05-18T01:08:21.282Z,84.10
2018-05-18T01:10:52.509Z,84.10
2018-05-18T01:13:23.691Z,84.00
2018-05-18T01:15:55.219Z,84.20
2018-05-18T01:18:26.344Z,84.50
2018-05-18T01:20:57.900Z,84.40
2018-05-18T01:23:29.119Z,84.80
2018-05-18T01:26:00.392Z,84.80
2018-05-18T01:28:31.629Z,84.40
2018-05-18T01:31:02.880Z,85.00
2018-05-18T01:33:34.163Z,84.80
2018-05-18T01:36:05.343Z,85.00
2018-05-18T01:38:37.314Z,84.30
2018-05-18T01:41:09.288Z,84.30
2018-05-18T01:43:40.500Z,84.30
2018-05-18T01:46:11.721Z,84.60
2018-05-18T01:48:43.027Z,84.60
2018-05-18T01:51:14.253Z,85.10
2018-05-18T01:53:46.200Z,84.70
2018-05-18T01:56:18.187Z,84.50
2018-05-18T01:58:49.490Z,84.50
2018-05-18T02:01:21.447Z,84.80
2018-05-18T02:03:52.674Z,84.70
2018-05-18T02:06:23.886Z,84.70
2018-05-18T02:08:56.581Z,84.60
2018-05-18T02:11:27.838Z,84.80
2018-05-18T02:13:59.076Z,85.30
2018-05-18T02:16:30.328Z,84.90
2018-05-18T02:19:01.581Z,84.80
2018-05-18T02:21:32.829Z,84.80
2018-05-18T02:24:04.240Z,84.90
2018-05-18T02:26:35.502Z,84.80
2018-05-18T02:29:07.016Z,85.40
2018-05-18T02:31:38.979Z,86.30
2018-05-18T02:34:10.217Z,86.20
2018-05-18T02:36:41.468Z,86.10
2018-05-18T02:39:12.727Z,86.30
2018-05-18T02:41:43.964Z,86.60
2018-05-18T02:44:15.176Z,86.70
2018-05-18T02:46:46.430Z,86.50
2018-05-18T02:49:18.461Z,86.80
2018-05-18T02:51:49.734Z,86.80
2018-05-18T02:54:22.048Z,87.00
2018-05-18T02:56:53.226Z,86.70
2018-05-18T02:59:24.474Z,86.40
2018-05-18T03:01:55.681Z,86.20
2018-05-18T03:04:26.923Z,87.20
2018-05-18T03:06:58.107Z,86.70
2018-05-18T03:09:29.451Z,86.60
2018-05-18T03:12:00.671Z,86.90
2018-05-18T03:14:32.098Z,87.40
2018-05-18T03:17:03.300Z,86.50
2018-05-18T03:19:34.530Z,87.10
2018-05-18T03:22:05.738Z,86.30
2018-05-18T03:24:37.269Z,87.50
2018-05-18T03:27:08.443Z,86.80
2018-05-18T03:29:39.713Z,86.80
2018-05-18T03:32:10.887Z,86.70
2018-05-18T03:34:42.913Z,86.80
2018-05-18T03:37:14.158Z,86.80
2018-05-18T03:39:45.560Z,86.60
2018-05-18T03:42:16.770Z,86.30
2018-05-18T03:44:48.686Z,86.10
2018-05-18T03:47:19.879Z,86.00
2018-05-18T03:49:57.906Z,86.00
2018-05-18T03:52:29.155Z,86.00
2018-05-18T03:55:00.349Z,86.30
2018-05-18T03:57:31.641Z,86.30
2018-05-18T04:00:02.886Z,86.50
2018-05-18T04:02:46.546Z,86.20
2018-05-18T04:05:30.111Z,86.00
2018-05-18T04:08:14.109Z,86.20
2018-05-18T04:10:45.347Z,86.60
2018-05-18T04:13:17.389Z,85.60
2018-05-18T04:15:49.358Z,85.50
2018-05-18T04:18:20.555Z,85.60
2018-05-18T04:20:51.918Z,85.70
2018-05-18T04:23:23.100Z,85.60
2018-05-18T04:25:54.396Z,85.50
2018-05-18T04:28:25.612Z,85.50
2018-05-18T04:30:56.824Z,85.40
2018-05-18T04:33:28.906Z,85.00
2018-05-18T04:36:00.146Z,84.90
2018-05-18T04:38:31.606Z,85.00
2018-05-18T04:41:02.835Z,84.90
2018-05-18T04:43:34.137Z,84.80
2018-05-18T04:46:06.785Z,84.70
2018-05-18T04:48:38.008Z,84.60
2018-05-18T04:51:09.259Z,84.60
2018-05-18T04:53:40.505Z,84.20
2018-05-18T04:56:11.677Z,83.80
2018-05-18T04:58:43.021Z,83.60
2018-05-18T05:01:14.170Z,83.80
2018-05-18T05:03:45.398Z,84.10
2018-05-18T05:06:16.742Z,84.20
2018-05-18T05:08:48.053Z,83.90
2018-05-18T05:11:19.303Z,83.90
2018-05-18T05:13:50.558Z,84.00
2018-05-18T05:16:21.768Z,84.10
2018-05-18T05:18:53.734Z,83.90
2018-05-18T05:21:24.942Z,83.80
2018-05-18T05:23:56.108Z,83.60
2018-05-18T05:26:28.059Z,83.60
2018-05-18T05:28:59.663Z,83.60
2018-05-18T05:31:30.908Z,83.30
2018-05-18T05:34:02.178Z,83.90
2018-05-18T05:36:33.422Z,83.40
2018-05-18T05:39:04.667Z,83.20
2018-05-18T05:41:35.892Z,83.40
2018-05-18T05:44:09.068Z,82.20
2018-05-18T05:46:40.262Z,82.80
2018-05-18T05:49:12.239Z,82.90
2018-05-18T05:51:43.536Z,82.60
2018-05-18T05:54:14.783Z,82.70
2018-05-18T05:56:45.975Z,82.70
2018-05-18T05:59:17.183Z,82.80
2018-05-18T06:01:48.362Z,82.30
2018-05-18T06:04:20.353Z,82.90
2018-05-18T06:06:51.577Z,82.80
2018-05-18T06:09:23.556Z,83.50
2018-05-18T06:11:55.328Z,83.40
2018-05-18T06:14:26.576Z,82.90
2018-05-18T06:16:57.809Z,83.20
2018-05-18T06:19:29.148Z,82.20
2018-05-18T06:22:01.012Z,82.00
2018-05-18T06:24:32.246Z,82.00
2018-05-18T06:27:04.296Z,82.00
2018-05-18T06:29:36.309Z,82.00
2018-05-18T06:32:07.571Z,81.90
2018-05-18T06:34:38.912Z,82.80
2018-05-18T06:37:10.812Z,81.80
2018-05-18T06:39:42.817Z,82.00
2018-05-18T06:42:14.111Z,81.90
2018-05-18T06:44:45.276Z,81.60
2018-05-18T06:47:17.273Z,81.80
2018-05-18T06:49:48.463Z,81.70
2018-05-18T06:52:20.494Z,81.80
2018-05-18T06:54:51.697Z,81.70
2018-05-18T06:57:23.071Z,81.70
2018-05-18T06:59:54.335Z,82.20
2018-05-18T07:02:25.533Z,82.00
2018-05-18T07:04:56.728Z,82.10
2018-05-18T07:07:27.974Z,81.80
2018-05-18T07:09:59.920Z,81.30
2018-05-18T07:12:31.637Z,81.20
2018-05-18T07:15:02.891Z,81.50
2018-05-18T07:17:34.141Z,81.60
2018-05-18T07:20:05.452Z,80.80
2018-05-18T07:22:36.570Z,80.70
2018-05-18T07:25:07.799Z,81.00
2018-05-18T07:27:39.111Z,80.50
2018-05-18T07:30:10.623Z,80.00
2018-05-18T07:32:41.780Z,79.90
2018-05-18T07:35:13.788Z,79.90
2018-05-18T07:37:44.997Z,79.80
2018-05-18T07:40:16.583Z,78.70
2018-05-18T07:42:47.805Z,79.10
2018-05-18T07:45:19.071Z,78.80
2018-05-18T07:47:50.323Z,79.00
2018-05-18T07:50:21.535Z,79.30
2018-05-18T07:52:52.906Z,79.20
2018-05-18T07:55:24.824Z,78.90
2018-05-18T07:57:56.832Z,78.50
2018-05-18T08:00:28.478Z,78.40
2018-05-18T08:03:01.398Z,79.70
2018-05-18T08:05:32.643Z,79.70
2018-05-18T08:08:03.877Z,78.70
2018-05-18T08:10:35.112Z,78.40
2018-05-18T08:13:06.465Z,77.10
2018-05-18T08:15:37.668Z,77.60
2018-05-18T08:18:09.035Z,78.20
2018-05-18T08:20:40.286Z,77.70
2018-05-18T08:23:11.530Z,77.70
2018-05-18T08:25:42.747Z,77.50
2018-05-18T08:28:13.993Z,77.60
2018-05-18T08:30:57.572Z,77.00
2018-05-18T08:33:28.824Z,76.90
2018-05-18T08:36:01.619Z,76.50
2018-05-18T08:38:32.796Z,76.40
2018-05-18T08:41:04.044Z,75.40
2018-05-18T08:43:35.237Z,75.00
2018-05-18T08:46:06.847Z,75.10
2018-05-18T08:48:39.081Z,75.90
2018-05-18T08:51:11.209Z,75.50
2018-05-18T08:53:42.648Z,75.50
2018-05-18T08:56:14.097Z,75.10
2018-05-18T08:58:47.028Z,74.70
2018-05-18T09:01:18.589Z,74.80
2018-05-18T09:03:50.678Z,75.20
2018-05-18T09:06:22.891Z,75.00
2018-05-18T09:08:54.253Z,75.40
2018-05-18T09:11:28.564Z,76.10
2018-05-18T09:14:00.746Z,75.80
2018-05-18T09:16:32.068Z,75.80
2018-05-18T09:19:05.664Z,76.10
2018-05-18T09:21:37.642Z,75.30
2018-05-18T09:24:09.635Z,74.70
2018-05-18T09:26:40.808Z,74.60
2018-05-18T09:29:12.004Z,76.00
2018-05-18T09:31:43.921Z,76.40
2018-05-18T09:34:15.139Z,75.60
2018-05-18T09:36:46.359Z,75.10
2018-05-18T09:39:18.305Z,74.90
2018-05-18T09:41:50.238Z,74.20
2018-05-18T09:44:21.647Z,74.20
2018-05-18T09:46:52.860Z,75.60
2018-05-18T09:49:24.824Z,75.60
2018-05-18T09:51:56.044Z,75.60
2018-05-18T09:54:28.471Z,75.00
2018-05-18T09:56:59.505Z,74.50
2018-05-18T09:59:30.766Z,74.60
2018-05-18T10:02:02.190Z,75.30
2018-05-18T10:04:33.362Z,75.60
2018-05-18T10:07:04.629Z,75.10
2018-05-18T10:09:36.032Z,74.40
2018-05-18T10:12:07.275Z,72.80
2018-05-18T10:14:38.562Z,74.20
2018-05-18T10:17:09.812Z,74.30
2018-05-18T10:19:41.728Z,73.70
2018-05-18T10:22:12.948Z,74.20
2018-05-18T10:24:44.918Z,73.50
2018-05-18T10:27:16.401Z,73.30
2018-05-18T10:29:48.264Z,73.90
2018-05-18T10:32:19.505Z,73.30
2018-05-18T10:34:51.124Z,72.90
2018-05-18T10:37:22.348Z,72.20
2018-05-18T10:39:54.342Z,73.90
2018-05-18T10:42:25.559Z,73.90
2018-05-18T10:44:56.807Z,74.00
2018-05-18T10:47:28.844Z,74.00
2018-05-18T10:50:00.678Z,74.00
2018-05-18T10:52:32.219Z,73.70
2018-05-18T10:55:03.478Z,73.30
2018-05-18T10:57:34.691Z,73.30
2018-05-18T11:00:06.050Z,72.50
2018-05-18T11:02:37.255Z,73.10
2018-05-18T11:05:09.205Z,73.00
2018-05-18T11:07:41.153Z,72.50
2018-05-18T11:10:12.376Z,72.40
2018-05-18T11:12:43.575Z,73.20
2018-05-18T11:15:14.874Z,73.60
2018-05-18T11:17:47.054Z,73.60
2018-05-18T11:20:18.556Z,73.50
2018-05-18T11:22:49.758Z,74.20
2018-05-18T11:25:21.008Z,74.20
2018-05-18T11:27:52.225Z,74.40
2018-05-18T11:30:23.484Z,74.00
2018-05-18T11:32:54.697Z,73.70
2018-05-18T11:35:26.060Z,73.30
2018-05-18T11:37:57.316Z,72.70
2018-05-18T11:40:28.739Z,73.90
2018-05-18T11:42:59.935Z,73.40
2018-05-18T11:45:31.896Z,72.70
2018-05-18T11:48:03.095Z,72.70
2018-05-18T11:50:34.369Z,71.90
2018-05-18T11:53:05.710Z,72.90
2018-05-18T11:55:37.091Z,73.10
2018-05-18T11:58:08.296Z,73.70
2018-05-18T12:00:39.468Z,73.30
2018-05-18T12:03:11.459Z,73.60
2018-05-18T12:05:42.651Z,73.40
2018-05-18T12:08:13.999Z,72.50
2018-05-18T12:10:46.185Z,72.90
2018-05-18T12:13:18.141Z,72.80
2018-05-18T12:15:50.130Z,71.80
2018-05-18T12:18:21.375Z,72.40
2018-05-18T12:20:53.412Z,72.40
2018-05-18T12:23:24.640Z,72.30
2018-05-18T12:25:55.876Z,72.30
2018-05-18T12:28:27.151Z,72.10
2018-05-18T12:30:58.735Z,73.50
2018-05-18T12:33:31.222Z,72.00
2018-05-18T12:36:03.017Z,72.20
2018-05-18T12:38:34.275Z,72.20
2018-05-18T12:41:06.085Z,71.90
2018-05-18T12:43:37.353Z,72.30
2018-05-18T12:46:09.471Z,72.20
2018-05-18T12:48:41.027Z,72.20
2018-05-18T12:51:12.231Z,72.10
2018-05-18T12:53:43.612Z,71.90
2018-05-18T12:56:15.600Z,71.90
2018-05-18T12:58:46.918Z,72.50
2018-05-18T13:01:18.181Z,71.70
2018-05-18T13:03:49.478Z,72.80
2018-05-18T13:06:20.691Z,71.50
2018-05-18T13:08:51.916Z,71.70
2018-05-18T13:11:23.119Z,71.90
2018-05-18T13:13:55.152Z,71.40
2018-05-18T13:16:26.446Z,71.40
2018-05-18T13:18:57.698Z,71.10
2018-05-18T13:21:28.900Z,72.20
2018-05-18T13:24:00.132Z,72.70
2018-05-18T13:26:31.944Z,72.20
2018-05-18T13:29:03.301Z,71.50
2018-05-18T13:31:34.479Z,72.00
2018-05-18T13:34:05.728Z,71.90
2018-05-18T13:36:37.718Z,71.90
2018-05-18T13:39:09.665Z,72.40
2018-05-18T13:41:40.900Z,72.30
2018-05-18T13:44:12.668Z,72.90
2018-05-18T13:46:43.995Z,72.30
2018-05-18T13:49:16.012Z,72.10
2018-05-18T13:51:47.223Z,72.00
2018-05-18T13:54:19.186Z,72.30
2018-05-18T13:56:51.187Z,72.30
2018-05-18T13:59:22.494Z,72.30
2018-05-18T14:01:53.719Z,72.30
2018-05-18T14:04:24.997Z,72.10
2018-05-18T14:06:56.976Z,72.70
2018-05-18T14:09:28.425Z,72.70
2018-05-18T14:11:59.603Z,73.00
2018-05-18T14:14:30.838Z,73.30
2018-05-18T14:17:02.079Z,73.60
2018-05-18T14:19:33.398Z,72.50
2018-05-18T14:22:04.613Z,73.40
2018-05-18T14:24:35.839Z,72.70
2018-05-18T14:27:07.962Z,73.30
2018-05-18T14:29:39.210Z,72.60
2018-05-18T14:32:10.598Z,72.90
2018-05-18T14:34:42.634Z,74.40
2018-05-18T14:37:14.683Z,73.80
2018-05-18T14:39:46.283Z,74.10
2018-05-18T14:42:18.351Z,74.50
2018-05-18T14:44:50.420Z,74.70
2018-05-18T14:47:22.368Z,74.70
2018-05-18T14:49:53.589Z,74.60
2018-05-18T14:52:24.767Z,74.70
2018-05-18T14:54:56.773Z,74.80
2018-05-18T14:57:28.056Z,74.70
2018-05-18T14:59:59.327Z,74.70
2018-05-18T15:02:31.881Z,75.60
2018-05-18T15:05:03.127Z,75.50
2018-05-18T15:07:34.315Z,76.20
2018-05-18T15:10:05.551Z,77.00
2018-05-18T15:12:36.869Z,75.80
2018-05-18T15:15:08.160Z,75.30
2018-05-18T15:17:39.378Z,75.10
2018-05-18T15:20:11.323Z,76.20
2018-05-18T15:22:43.272Z,75.80
2018-05-18T15:25:14.521Z,75.70
2018-05-18T15:27:46.496Z,75.80
2018-05-18T15:30:18.430Z,75.80
2018-05-18T15:32:49.755Z,75.70
2018-05-18T15:35:20.945Z,76.50
2018-05-18T15:37:54.287Z,76.90
2018-05-18T15:40:25.498Z,76.80
2018-05-18T15:42:56.782Z,76.60
2018-05-18T15:45:28.716Z,76.80
2018-05-18T15:48:00.090Z,76.70
2018-05-18T15:50:31.336Z,76.50
2018-05-18T15:53:02.675Z,76.80
2018-05-18T15:55:33.859Z,77.00
2018-05-18T15:58:06.079Z,76.90
2018-05-18T16:00:37.761Z,76.80
2018-05-18T16:03:08.946Z,76.80
2018-05-18T16:05:41.150Z,76.70
2018-05-18T16:08:12.357Z,76.70
2018-05-18T16:10:43.591Z,76.60
2018-05-18T16:13:15.531Z,76.60
2018-05-18T16:15:46.702Z,76.50
2018-05-18T16:18:18.295Z,76.70
2018-05-18T16:20:49.519Z,77.30
2018-05-18T16:23:20.698Z,77.40
2018-05-18T16:25:51.943Z,77.00
2018-05-18T16:28:23.111Z,76.50
2018-05-18T16:30:55.107Z,76.80
2018-05-18T16:33:26.388Z,76.70
2018-05-18T16:35:57.596Z,76.90
2018-05-18T16:38:29.263Z,76.70
2018-05-18T16:41:00.485Z,76.90
2018-05-18T16:43:31.727Z,76.60
2018-05-18T16:46:02.951Z,76.70
2018-05-18T16:48:35.231Z,78.30
2018-05-18T16:51:06.419Z,77.50
2018-05-18T16:53:37.675Z,78.10
2018-05-18T16:56:08.862Z,78.40
2018-05-18T16:58:40.899Z,78.60
2018-05-18T17:01:12.316Z,78.60
2018-05-18T17:03:43.505Z,79.70
2018-05-18T17:06:15.481Z,80.30
2018-05-18T17:08:47.412Z,80.30
2018-05-18T17:11:19.446Z,80.50
2018-05-18T17:13:50.702Z,80.30
2018-05-18T17:16:21.905Z,80.70
2018-05-18T17:18:53.258Z,80.50
2018-05-18T17:21:24.546Z,80.10
2018-05-18T17:23:55.972Z,80.40
2018-05-18T17:26:27.171Z,80.70
2018-05-18T17:28:58.410Z,80.80
2018-05-18T17:31:30.452Z,81.30
2018-05-18T17:34:01.674Z,81.20
2018-05-18T17:36:32.890Z,81.30
2018-05-18T17:39:04.265Z,81.00
2018-05-18T17:41:35.485Z,81.30
2018-05-18T17:44:06.972Z,81.30
2018-05-18T17:46:38.178Z,81.40
2018-05-18T17:49:09.387Z,81.40
2018-05-18T17:51:41.354Z,81.70
2018-05-18T17:54:13.323Z,81.90
2018-05-18T17:56:44.547Z,81.90
2018-05-18T17:59:17.482Z,81.80
2018-05-18T18:01:48.653Z,81.80
2018-05-18T18:04:20.192Z,81.70
2018-05-18T18:06:51.380Z,82.20
2018-05-18T18:09:23.369Z,82.50
2018-05-18T18:11:54.591Z,82.40
2018-05-18T18:14:25.815Z,82.50
2018-05-18T18:16:57.004Z,82.50
2018-05-18T18:19:28.313Z,82.90
2018-05-18T18:21:59.506Z,82.50
2018-05-18T18:24:30.743Z,83.10
2018-05-18T18:27:01.932Z,83.10
2018-05-18T18:29:34.010Z,83.00
2018-05-18T18:32:05.927Z,83.20
2018-05-18T18:34:37.164Z,83.20
2018-05-18T18:37:08.369Z,83.50
2018-05-18T18:39:39.658Z,83.20
2018-05-18T18:42:10.872Z,83.30
2018-05-18T18:44:42.098Z,83.20
2018-05-18T18:47:14.288Z,83.60
2018-05-18T18:49:45.486Z,83.60
2018-05-18T18:52:17.084Z,83.70
2018-05-18T18:54:48.291Z,83.60
2018-05-18T18:57:19.629Z,84.10
2018-05-18T18:59:50.927Z,84.80
2018-05-18T19:02:22.199Z,84.20
2018-05-18T19:04:53.385Z,85.20
2018-05-18T19:07:25.368Z,85.50
2018-05-18T19:09:56.591Z,85.50
2018-05-18T19:12:28.595Z,86.10
2018-05-18T19:14:59.855Z,86.10
2018-05-18T19:17:31.117Z,85.70
2018-05-18T19:20:02.405Z,85.70
2018-05-18T19:22:33.671Z,86.10
2018-05-18T19:25:04.882Z,85.80
2018-05-18T19:27:36.872Z,86.40
2018-05-18T19:30:08.199Z,86.30
2018-05-18T19:32:39.423Z,86.60
2018-05-18T19:35:10.648Z,86.90
2018-05-18T19:37:42.056Z,86.70
2018-05-18T19:40:13.403Z,86.80
2018-05-18T19:42:45.058Z,86.70
2018-05-18T19:45:16.322Z,87.10
2018-05-18T19:47:47.637Z,87.10
2018-05-18T19:50:18.998Z,87.60
2018-05-18T19:52:50.192Z,88.00
2018-05-18T19:55:22.423Z,88.10
2018-05-18T19:57:53.646Z,88.00
2018-05-18T20:00:25.165Z,87.80
2018-05-18T20:02:57.124Z,88.60
2018-05-18T20:05:34.576Z,88.50
2018-05-18T20:08:11.991Z,88.30
2018-05-18T20:10:49.483Z,88.10
2018-05-18T20:13:26.831Z,88.40
2018-05-18T20:16:04.325Z,88.30
2018-05-18T20:18:41.637Z,88.10
2018-05-18T20:21:13.014Z,87.40
2018-05-18T20:23:44.926Z,87.50
2018-05-18T20:26:16.193Z,87.40
2018-05-18T20:28:47.428Z,87.60
2018-05-18T20:31:20.382Z,87.80
2018-05-18T20:33:51.562Z,87.80
2018-05-18T20:36:22.862Z,88.00
2018-05-18T20:38:54.057Z,88.50
2018-05-18T20:41:25.394Z,89.10
2018-05-18T20:43:56.636Z,89.20
2018-05-18T20:46:27.836Z,89.30
2018-05-18T20:48:59.055Z,89.30
2018-05-18T20:51:31.257Z,89.70
2018-05-18T20:54:02.467Z,89.70
2018-05-18T20:56:34.855Z,89.60
2018-05-18T20:59:06.043Z,89.60
2018-05-18T21:01:38.804Z,89.80
2018-05-18T21:04:09.975Z,89.30
2018-05-18T21:06:41.215Z,88.90
2018-05-18T21:09:12.456Z,88.80
2018-05-18T21:11:43.786Z,88.20
2018-05-18T21:14:14.999Z,88.90
2018-05-18T21:16:46.226Z,88.90
2018-05-18T21:19:18.232Z,89.60
2018-05-18T21:21:49.479Z,89.50
2018-05-18T21:24:20.704Z,89.60
2018-05-18T21:26:51.996Z,89.80
2018-05-18T21:29:23.399Z,89.60
2018-05-18T21:31:54.598Z,89.60
2018-05-18T21:34:25.856Z,89.70
2018-05-18T21:36:57.869Z,90.00
2018-05-18T21:39:29.069Z,90.00
2018-05-18T21:42:00.342Z,90.10
2018-05-18T21:44:31.579Z,90.00
2018-05-18T21:47:02.760Z,90.10
2018-05-18T21:49:33.991Z,90.00
2018-05-18T21:52:05.216Z,90.00
2018-05-18T21:54:36.451Z,90.10
2018-05-18T21:57:07.675Z,90.40
2018-05-18T21:59:38.872Z,90.60
2018-05-18T22:02:11.505Z,90.60
2018-05-18T22:04:42.694Z,90.90
2018-05-18T22:07:13.976Z,90.50
2018-05-18T22:09:46.193Z,90.30
2018-05-18T22:12:17.364Z,90.30
2018-05-18T22:14:48.565Z,90.20
2018-05-18T22:17:19.769Z,90.20
2018-05-18T22:19:51.088Z,90.30
2018-05-18T22:22:22.393Z,90.60
2018-05-18T22:24:53.640Z,90.50
2018-05-18T22:27:24.834Z,90.50
2018-05-18T22:29:56.975Z,90.80
2018-05-18T22:32:28.182Z,90.70
2018-05-18T22:35:00.178Z,90.50
2018-05-18T22:37:31.412Z,90.50
2018-05-18T22:40:02.657Z,90.50
2018-05-18T22:42:34.938Z,90.80
2018-05-18T22:45:06.177Z,90.80
2018-05-18T22:47:37.380Z,90.70
2018-05-18T22:50:09.369Z,90.50
2018-05-18T22:52:40.673Z,90.60
2018-05-18T22:55:12.678Z,90.90
2018-05-18T22:57:43.941Z,90.60
2018-05-18T23:00:30.122Z,90.60
2018-05-18T23:03:01.351Z,90.50
2018-05-18T23:05:32.927Z,90.60
2018-05-18T23:08:04.147Z,90.50
2018-05-18T23:10:35.438Z,90.60
2018-05-18T23:13:06.648Z,90.80
2018-05-18T23:15:38.012Z,90.90
2018-05-18T23:18:09.238Z,90.90
2018-05-18T23:20:40.456Z,90.90
2018-05-18T23:23:12.449Z,91.00
2018-05-18T23:25:43.759Z,91.00
2018-05-18T23:28:14.897Z,91.00
2018-05-18T23:30:46.873Z,90.90
2018-05-18T23:33:18.062Z,90.90
2018-05-18T23:35:50.220Z,90.80
2018-05-18T23:38:21.555Z,91.00
2018-05-18T23:40:52.710Z,91.10
2018-05-18T23:43:24.993Z,91.20
2018-05-18T23:45:56.175Z,91.10
2018-05-18T23:48:27.420Z,91.30
2018-05-18T23:50:58.611Z,91.50
2018-05-18T23:53:30.026Z,91.60
2018-05-18T23:56:01.230Z,91.60
2018-05-18T23:58:32.419Z,91.50
